Time;durP1;ratioP1;P1;durP2;ratioP2;P2;SDS_P1;SDS_P2;PMS_P1;PMS_P2;Temp;Humidity;BMP_temperature;BMP_pressure;BME280_temperature;BME280_humidity;BME280_pressure;Samples;Min_cycle;Max_cycle;Signal;HPM_P1;HPM_P2
2021/01/07 00:00:17;;;;;;;8.43;5.35;;;;;;;0.77;86.52;100941.50;10116666;28;20141;-67
2021/01/07 00:05:13;;;;;;;9.95;5.88;;;;;;;0.83;86.22;100937.81;10113116;28;20113;-64
2021/01/07 00:10:10;;;;;;;9.25;6.15;;;;;;;0.78;86.48;100932.34;10117498;28;20058;-64
2021/01/07 00:15:07;;;;;;;10.30;6.35;;;;;;;0.79;86.21;100931.28;10114128;28;20050;-66
2021/01/07 00:20:07;;;;;;;10.35;6.55;;;;;;;0.60;87.29;100931.56;10114376;28;20469;-65
2021/01/07 00:25:08;;;;;;;9.70;5.40;;;;;;;0.50;87.70;100928.72;10112572;28;20046;-67
2021/01/07 00:30:06;;;;;;;9.77;6.35;;;;;;;0.70;87.36;100919.34;10106864;28;20058;-63
2021/01/07 00:35:03;;;;;;;11.23;7.30;;;;;;;0.67;87.55;100919.81;10114451;28;20542;-66
2021/01/07 00:39:59;;;;;;;27.83;15.98;;;;;;;0.74;87.17;100921.28;10118303;28;20497;-67
2021/01/07 00:44:55;;;;;;;11.32;7.13;;;;;;;0.74;87.38;100909.69;10105957;28;20065;-69
2021/01/07 00:49:55;;;;;;;11.05;6.13;;;;;;;0.52;87.71;100913.13;10122474;28;20055;-66
2021/01/07 00:54:51;;;;;;;11.02;6.93;;;;;;;0.57;87.54;100905.13;10113221;28;20050;-66
2021/01/07 00:59:47;;;;;;;12.23;6.68;;;;;;;0.43;88.02;100903.84;10110553;28;20062;-66
2021/01/07 01:04:43;;;;;;;11.15;7.35;;;;;;;0.52;88.04;100910.44;10109213;28;20086;-68
2021/01/07 01:09:39;;;;;;;10.88;6.35;;;;;;;0.45;88.29;100907.13;10104087;28;20049;-66
2021/01/07 01:14:35;;;;;;;11.30;5.70;;;;;;;0.45;88.27;100900.94;10104978;28;20434;-65
2021/01/07 01:19:32;;;;;;;11.18;6.88;;;;;;;0.51;88.18;100900.75;10114804;28;20072;-68
2021/01/07 01:24:28;;;;;;;12.80;7.50;;;;;;;0.51;88.17;100906.16;10106178;28;20082;-68
2021/01/07 01:29:25;;;;;;;11.13;6.30;;;;;;;0.43;88.69;100903.84;10112944;28;20151;-66
2021/01/07 01:34:24;;;;;;;12.23;8.25;;;;;;;0.55;88.36;100912.63;10107653;28;20042;-64
2021/01/07 01:39:20;;;;;;;11.52;6.88;;;;;;;0.40;88.65;100904.34;10111819;28;20394;-63
2021/01/07 01:44:17;;;;;;;11.85;6.93;;;;;;;0.37;88.84;100910.19;10113528;28;20077;-69
2021/01/07 01:49:14;;;;;;;12.48;7.68;;;;;;;0.45;88.60;100901.72;10112667;28;20078;-66
2021/01/07 01:54:10;;;;;;;13.13;7.38;;;;;;;0.39;88.66;100897.31;10110481;28;20051;-67
2021/01/07 01:59:07;;;;;;;13.60;8.00;;;;;;;0.33;89.19;100903.72;10112948;28;20069;-67
2021/01/07 02:04:04;;;;;;;11.27;6.32;;;;;;;0.35;89.03;100901.59;10114532;28;20854;-67
2021/01/07 02:09:00;;;;;;;12.77;7.47;;;;;;;0.33;88.70;100898.31;10105028;28;20046;-67
2021/01/07 02:13:56;;;;;;;12.00;6.80;;;;;;;0.40;88.77;100897.09;10111936;28;20093;-68
2021/01/07 02:18:56;;;;;;;11.52;7.07;;;;;;;0.36;88.95;100895.13;10111417;28;20054;-65
2021/01/07 02:23:54;;;;;;;10.60;6.38;;;;;;;0.40;88.88;100893.59;10118697;28;20497;-64
2021/01/07 02:28:50;;;;;;;11.85;6.93;;;;;;;0.37;88.80;100891.38;10129251;28;20725;-64
2021/01/07 02:33:46;;;;;;;10.90;6.32;;;;;;;0.37;89.10;100884.16;10107232;28;20061;-68
2021/01/07 02:38:42;;;;;;;14.50;7.78;;;;;;;0.33;89.18;100887.56;10116674;28;20331;-67
2021/01/07 02:43:39;;;;;;;13.38;7.00;;;;;;;0.39;88.84;100883.88;10112605;28;20471;-68
2021/01/07 02:48:35;;;;;;;12.35;6.82;;;;;;;0.46;88.85;100873.75;10112775;28;20466;-68
2021/01/07 02:53:31;;;;;;;11.55;6.68;;;;;;;0.50;88.31;100882.16;10111121;28;20150;-67
2021/01/07 02:58:27;;;;;;;8.90;4.45;;;;;;;0.42;88.46;100875.34;10103880;28;20053;-65
2021/01/07 03:03:23;;;;;;;9.43;5.93;;;;;;;0.39;88.70;100881.19;10110510;28;20072;-66
2021/01/07 03:08:19;;;;;;;10.40;6.22;;;;;;;0.33;88.98;100887.56;10120278;28;20089;-68
2021/01/07 03:13:15;;;;;;;9.80;5.28;;;;;;;0.33;88.87;100876.81;10111696;28;20558;-67
2021/01/07 03:18:11;;;;;;;9.73;4.78;;;;;;;0.32;88.97;100873.28;10119314;28;20042;-67
2021/01/07 03:23:07;;;;;;;9.27;5.40;;;;;;;0.37;88.88;100872.53;10123643;28;20085;-68
2021/01/07 03:28:03;;;;;;;8.55;5.00;;;;;;;0.39;88.71;100875.81;10123090;28;20403;-68
2021/01/07 03:32:59;;;;;;;9.00;5.20;;;;;;;0.33;89.01;100874.13;10118228;28;20591;-66
2021/01/07 03:37:55;;;;;;;11.30;5.50;;;;;;;0.27;89.42;100867.03;10118379;28;20061;-68
2021/01/07 03:42:52;;;;;;;10.25;6.07;;;;;;;0.31;89.28;100873.53;10124262;28;20055;-67
2021/01/07 03:47:47;;;;;;;10.60;6.30;;;;;;;0.37;89.11;100869.84;10103715;28;20050;-66
2021/01/07 03:52:44;;;;;;;9.63;5.68;;;;;;;0.37;89.05;100861.78;10110395;28;20884;-68
2021/01/07 03:57:40;;;;;;;9.23;5.60;;;;;;;0.41;88.94;100868.31;10108255;28;20049;-67
2021/01/07 04:02:37;;;;;;;9.43;5.57;;;;;;;0.52;88.49;100864.72;10116588;28;20078;-66
2021/01/07 04:07:33;;;;;;;10.50;6.30;;;;;;;0.47;88.91;100861.94;10106145;28;20050;-66
2021/01/07 04:12:29;;;;;;;9.30;5.15;;;;;;;0.46;88.42;100865.69;10116262;28;20423;-68
2021/01/07 04:17:31;;;;;;;9.90;6.15;;;;;;;0.51;88.54;100860.41;10116189;28;20811;-66
2021/01/07 04:22:27;;;;;;;9.93;5.63;;;;;;;0.45;88.20;100858.69;10139471;28;20082;-66
2021/01/07 04:27:23;;;;;;;10.77;6.22;;;;;;;0.42;88.44;100859.19;10109340;28;20050;-68
2021/01/07 04:32:19;;;;;;;12.75;6.70;;;;;;;0.40;88.53;100855.94;10109830;28;20379;-68
2021/01/07 04:37:15;;;;;;;10.00;6.07;;;;;;;0.44;88.83;100848.16;10121468;28;20088;-67
2021/01/07 04:42:12;;;;;;;13.02;7.20;;;;;;;0.40;88.78;100850.56;10116546;28;20053;-67
2021/01/07 04:47:10;;;;;;;11.85;7.15;;;;;;;0.37;88.87;100853.72;10107169;28;20050;-65
2021/01/07 04:52:06;;;;;;;15.50;8.23;;;;;;;0.43;88.80;100852.75;10114645;28;21971;-67
2021/01/07 04:57:03;;;;;;;11.82;7.63;;;;;;;0.46;88.78;100854.94;10129946;28;20083;-65
2021/01/07 05:02:02;;;;;;;13.40;7.68;;;;;;;0.52;88.29;100848.56;10111138;28;20577;-64
2021/01/07 05:06:58;;;;;;;12.40;7.50;;;;;;;0.52;88.52;100851.25;10112095;28;20043;-65
2021/01/07 05:11:54;;;;;;;12.88;6.97;;;;;;;0.67;87.98;100855.22;10114551;28;20050;-68
2021/01/07 05:16:50;;;;;;;12.82;7.65;;;;;;;0.53;88.13;100855.56;10106797;28;20634;-65
2021/01/07 05:21:46;;;;;;;13.13;6.38;;;;;;;0.68;88.01;100851.47;10103742;28;20503;-67
2021/01/07 05:26:44;;;;;;;11.57;6.90;;;;;;;0.63;87.58;100844.97;10104997;28;20660;-65
2021/01/07 05:31:54;;;;;;;11.00;5.65;;;;;;;0.54;87.74;100851.81;10114030;28;20051;-65
2021/01/07 05:36:56;;;;;;;12.45;6.55;;;;;;;0.45;88.20;100850.63;10116556;28;20057;-62
2021/01/07 05:41:53;;;;;;;10.75;6.25;;;;;;;0.50;88.16;100850.69;10117315;28;20050;-62
2021/01/07 05:46:52;;;;;;;11.02;5.95;;;;;;;0.56;88.44;100852.41;10103385;28;20066;-64
2021/01/07 05:51:50;;;;;;;9.88;5.90;;;;;;;0.60;88.03;100856.22;10086371;28;20087;-63
2021/01/07 05:56:48;;;;;;;12.27;5.95;;;;;;;0.53;88.21;100850.19;10082697;28;20055;-64
2021/01/07 06:01:50;;;;;;;9.45;5.90;;;;;;;0.54;88.21;100849.13;10102193;28;20618;-63
2021/01/07 06:06:47;;;;;;;10.80;5.15;;;;;;;0.36;88.58;100844.84;10101780;28;20277;-64
2021/01/07 06:11:44;;;;;;;11.10;5.93;;;;;;;0.39;88.71;100849.72;10099296;28;20129;-66
2021/01/07 06:16:45;;;;;;;11.00;5.78;;;;;;;0.38;88.42;100852.66;10107592;28;20050;-67
2021/01/07 06:21:47;;;;;;;8.70;5.03;;;;;;;0.51;88.55;100851.50;10100435;28;20805;-64
2021/01/07 06:26:46;;;;;;;10.07;4.35;;;;;;;0.52;88.36;100843.19;10086711;28;20114;-64
2021/01/07 06:31:43;;;;;;;10.48;4.93;;;;;;;0.40;88.31;100845.16;10095837;28;20141;-64
2021/01/07 06:36:44;;;;;;;9.43;4.75;;;;;;;0.53;88.23;100850.19;10095478;28;20074;-65
2021/01/07 06:41:51;;;;;;;9.35;5.30;;;;;;;0.62;88.33;100843.31;10100452;28;20671;-66
2021/01/07 06:46:49;;;;;;;9.23;5.00;;;;;;;0.53;88.22;100841.31;10109822;28;20042;-63
2021/01/07 06:51:52;;;;;;;9.50;4.78;;;;;;;0.66;87.86;100853.59;10095444;28;20051;-64
2021/01/07 06:56:54;;;;;;;9.68;5.20;;;;;;;0.57;87.95;100854.00;10109007;28;20039;-64
2021/01/07 07:01:53;;;;;;;12.88;6.05;;;;;;;0.63;88.06;100861.09;10114562;28;20054;-64
2021/01/07 07:06:57;;;;;;;10.45;5.97;;;;;;;0.61;87.74;100859.72;10113475;28;20137;-63
2021/01/07 07:11:55;;;;;;;12.27;6.28;;;;;;;0.65;87.89;100868.09;10123110;28;20469;-65
2021/01/07 07:16:54;;;;;;;11.82;5.72;;;;;;;0.61;87.65;100868.59;10111197;28;20046;-65
2021/01/07 07:22:01;;;;;;;13.63;6.28;;;;;;;0.49;88.16;100867.91;10120256;28;20077;-65
2021/01/07 07:27:08;;;;;;;11.13;6.35;;;;;;;0.62;88.26;100874.81;9852328;28;8129746;-66
2021/01/07 07:32:29;;;;;;;10.35;5.78;;;;;;;0.60;88.29;100876.91;10126010;28;20708;-62
2021/01/07 07:37:27;;;;;;;9.38;5.57;;;;;;;0.72;87.92;100879.50;10115300;28;20047;-64
2021/01/07 07:42:26;;;;;;;11.20;6.10;;;;;;;0.70;87.88;100884.34;10118987;28;20109;-64
2021/01/07 07:47:29;;;;;;;10.77;5.93;;;;;;;0.73;87.50;100891.91;10136361;23;20149;-66
2021/01/07 07:52:25;;;;;;;12.82;6.60;;;;;;;0.82;87.56;100895.81;10176751;28;20046;-63
2021/01/07 07:57:21;;;;;;;10.95;6.43;;;;;;;0.73;88.04;100897.31;10177490;28;20038;-64
2021/01/07 08:02:36;;;;;;;12.18;6.72;;;;;;;0.78;87.98;100905.44;10132894;28;20623;-64
2021/01/07 08:07:37;;;;;;;11.52;6.63;;;;;;;0.84;87.70;100907.16;10141611;28;20073;-65
2021/01/07 08:12:36;;;;;;;10.65;6.20;;;;;;;0.89;87.39;100912.59;10137244;28;20055;-65
2021/01/07 08:17:35;;;;;;;12.73;6.13;;;;;;;0.84;87.66;100910.66;10151929;28;20050;-65
2021/01/07 08:22:36;;;;;;;10.55;5.20;;;;;;;0.70;87.52;100911.25;10154018;28;20072;-64
2021/01/07 08:27:36;;;;;;;14.52;6.93;;;;;;;0.86;87.55;100913.09;10122364;28;20058;-66
2021/01/07 08:32:42;;;;;;;10.63;6.40;;;;;;;0.94;87.54;100914.53;10137787;28;20047;-65
2021/01/07 08:37:43;;;;;;;11.93;6.43;;;;;;;1.00;87.38;100908.97;10133187;28;20047;-65
2021/01/07 08:42:41;;;;;;;11.02;6.50;;;;;;;1.12;87.52;100911.56;10131422;28;20073;-65
2021/01/07 08:47:41;;;;;;;12.70;6.38;;;;;;;1.07;87.29;100907.97;10133616;28;20553;-64
2021/01/07 08:52:54;;;;;;;12.43;7.18;;;;;;;0.97;87.30;100908.66;10142583;28;20112;-65
2021/01/07 08:58:01;;;;;;;10.85;6.40;;;;;;;1.15;87.28;100910.25;10151737;28;20120;-64
2021/01/07 09:03:01;;;;;;;12.55;6.20;;;;;;;1.08;86.81;100904.22;10164280;28;20108;-65
2021/01/07 09:08:08;;;;;;;12.50;6.80;;;;;;;1.12;87.17;100905.38;10150338;28;20627;-64
2021/01/07 09:13:20;;;;;;;13.32;7.05;;;;;;;1.10;87.07;100904.78;10145916;28;20157;-64
2021/01/07 09:18:18;;;;;;;13.15;6.38;;;;;;;1.02;87.38;100912.25;10146915;28;20053;-64
2021/01/07 09:23:18;;;;;;;11.80;6.32;;;;;;;1.01;88.05;100915.19;10144648;28;20046;-64
2021/01/07 09:28:15;;;;;;;11.90;6.30;;;;;;;1.15;87.97;100913.75;10132967;28;20668;-68
2021/01/07 09:33:12;;;;;;;13.13;6.85;;;;;;;1.22;87.75;100916.25;10135815;28;20540;-64
2021/01/07 09:38:10;;;;;;;10.55;6.28;;;;;;;1.23;87.37;100917.88;10160086;28;20093;-67
2021/01/07 09:43:08;;;;;;;12.80;7.00;;;;;;;1.16;87.50;100911.84;10151018;28;20022;-64
2021/01/07 09:48:06;;;;;;;10.52;6.38;;;;;;;1.23;87.93;100913.31;10141470;28;20049;-63
2021/01/07 09:53:03;;;;;;;12.25;5.95;;;;;;;1.01;87.86;100910.59;10169201;28;20038;-64
2021/01/07 09:58:06;;;;;;;13.07;6.43;;;;;;;1.14;88.00;100919.38;10164202;28;20123;-69
2021/01/07 10:03:03;;;;;;;11.95;6.53;;;;;;;1.11;87.84;100909.09;10142657;28;20472;-65
2021/01/07 10:08:01;;;;;;;10.73;6.03;;;;;;;1.22;87.33;100910.88;10159923;28;20585;-65
2021/01/07 10:13:03;;;;;;;10.27;5.18;;;;;;;1.12;87.70;100905.38;10147560;28;20042;-64
2021/01/07 10:18:00;;;;;;;11.48;6.75;;;;;;;1.17;87.78;100902.72;10150907;28;20049;-65
2021/01/07 10:22:58;;;;;;;11.65;5.50;;;;;;;1.31;87.76;100898.59;10148933;28;20488;-65
2021/01/07 10:27:57;;;;;;;14.95;6.45;;;;;;;1.37;87.73;100902.13;10166629;28;20039;-64
2021/01/07 10:33:12;;;;;;;8.35;4.78;;;;;;;1.41;87.20;100893.31;10211517;23;20070;-64
2021/01/07 10:38:17;;;;;;;9.13;4.40;;;;;;;1.39;86.88;100890.06;10183391;28;20100;-66
2021/01/07 10:43:14;;;;;;;8.75;4.85;;;;;;;1.45;86.92;100891.72;10170870;28;20521;-65
2021/01/07 10:48:23;;;;;;;8.95;4.60;;;;;;;1.31;86.53;100897.78;10107372;23;20141;-75
2021/01/07 10:53:36;;;;;;;8.77;4.15;;;;;;;1.57;86.08;100890.78;10104676;28;20621;-75
2021/01/07 10:58:38;;;;;;;8.18;3.97;;;;;;;1.38;86.38;100891.13;10091702;28;20735;-77
2021/01/07 11:04:16;;;;;;;8.02;3.55;;;;;;;1.19;86.14;100884.44;10083938;28;20136;-77
2021/01/07 11:09:21;;;;;;;6.85;2.90;;;;;;;1.16;86.75;100884.91;10101213;28;20055;-75
2021/01/07 11:14:44;;;;;;;8.63;4.43;;;;;;;1.13;86.61;100880.84;10099857;28;20050;-74
2021/01/07 11:19:43;;;;;;;7.43;3.33;;;;;;;1.25;86.87;100872.63;10091843;28;20074;-76
2021/01/07 11:24:42;;;;;;;7.95;3.70;;;;;;;1.07;87.71;100875.66;10108342;28;20655;-75
2021/01/07 11:29:43;;;;;;;7.03;3.72;;;;;;;1.29;87.66;100867.56;10069801;28;20055;-76
2021/01/07 11:34:40;;;;;;;8.18;4.00;;;;;;;1.37;87.33;100870.66;10097001;28;20096;-75
2021/01/07 11:39:58;;;;;;;7.13;3.40;;;;;;;1.38;86.91;100866.88;10090326;28;20059;-76
2021/01/07 11:45:18;;;;;;;7.30;3.67;;;;;;;1.31;87.10;100860.88;10122262;28;20062;-75
2021/01/07 11:50:18;;;;;;;8.85;3.50;;;;;;;1.41;86.67;100863.66;10095714;28;20547;-75
2021/01/07 11:55:15;;;;;;;7.60;4.28;;;;;;;1.47;86.02;100851.88;10101559;28;20043;-75
2021/01/07 12:00:18;;;;;;;8.73;3.75;;;;;;;1.45;86.23;100862.09;10105810;28;20053;-75
2021/01/07 12:05:17;;;;;;;5.85;2.78;;;;;;;1.18;86.83;100847.78;10102994;28;20058;-76
2021/01/07 12:10:17;;;;;;;5.40;2.65;;;;;;;1.10;87.24;100853.63;10087861;28;20054;-75
2021/01/07 12:15:17;;;;;;;6.40;2.90;;;;;;;1.06;87.44;100853.31;10115282;28;20146;-75
2021/01/07 12:20:15;;;;;;;5.53;2.35;;;;;;;1.08;86.97;100855.75;10117191;28;20078;-75
2021/01/07 12:25:13;;;;;;;7.85;3.38;;;;;;;1.13;86.98;100853.13;10104219;28;20132;-75
2021/01/07 12:30:17;;;;;;;8.10;3.90;;;;;;;1.25;86.68;100848.41;10096697;28;20488;-74
2021/01/07 12:35:23;;;;;;;6.67;3.23;;;;;;;1.32;87.07;100850.91;10102108;28;20136;-74
2021/01/07 12:40:23;;;;;;;9.40;2.60;;;;;;;1.42;86.40;100846.44;10100171;28;20138;-74
2021/01/07 12:45:20;;;;;;;6.53;3.40;;;;;;;1.33;86.39;100841.78;10116770;28;20053;-75
2021/01/07 12:50:16;;;;;;;7.60;3.60;;;;;;;1.50;86.24;100836.28;10106729;28;20051;-76
2021/01/07 12:55:13;;;;;;;7.85;4.22;;;;;;;1.58;86.13;100833.09;10094810;28;20661;-75
2021/01/07 13:00:13;;;;;;;8.80;4.38;;;;;;;1.55;86.06;100839.00;10097105;28;20138;-75
2021/01/07 13:05:25;;;;;;;7.07;4.00;;;;;;;1.69;85.64;100829.44;10088763;28;20415;-77
2021/01/07 13:10:23;;;;;;;6.47;3.30;;;;;;;1.39;86.35;100838.03;10087175;28;20047;-78
2021/01/07 13:15:19;;;;;;;6.95;3.35;;;;;;;1.30;86.17;100826.94;10097461;28;20050;-76
2021/01/07 13:20:17;;;;;;;6.55;3.55;;;;;;;1.45;86.22;100824.38;10084537;28;20120;-77
2021/01/07 13:25:19;;;;;;;6.28;3.38;;;;;;;1.40;86.70;100832.41;10103467;28;20077;-77
2021/01/07 13:30:17;;;;;;;7.35;3.75;;;;;;;1.46;86.00;100836.78;10113272;28;20058;-77
2021/01/07 13:35:45;;;;;;;5.65;2.70;;;;;;;1.61;85.50;100843.41;10086397;28;20134;-76
2021/01/07 13:40:42;;;;;;;6.70;3.40;;;;;;;1.61;85.00;100833.41;10098487;28;20054;-77
2021/01/07 13:45:42;;;;;;;6.75;3.08;;;;;;;1.70;84.50;100841.88;10109927;28;20055;-76
2021/01/07 13:50:43;;;;;;;7.05;3.45;;;;;;;1.73;84.91;100837.84;10105222;28;20496;-75
2021/01/07 13:55:40;;;;;;;6.88;3.60;;;;;;;1.85;84.56;100839.28;10083336;28;20051;-79
2021/01/07 14:00:39;;;;;;;7.25;3.17;;;;;;;1.75;84.16;100843.78;10097313;28;20054;-76
2021/01/07 14:05:40;;;;;;;8.57;4.28;;;;;;;1.83;84.75;100836.06;10086217;28;20572;-77
2021/01/07 14:10:39;;;;;;;7.55;4.70;;;;;;;1.74;85.04;100842.16;10092514;28;20116;-76
2021/01/07 14:15:36;;;;;;;6.60;3.67;;;;;;;1.75;84.80;100833.81;10090704;28;20096;-77
2021/01/07 14:20:34;;;;;;;8.00;4.18;;;;;;;1.65;84.65;100855.31;10087356;28;20101;-77
2021/01/07 14:25:32;;;;;;;9.40;4.28;;;;;;;1.69;84.73;100851.00;10095656;28;20060;-77
2021/01/07 14:30:30;;;;;;;8.35;4.50;;;;;;;1.51;85.35;100840.59;10104563;28;20479;-77
2021/01/07 14:35:29;;;;;;;8.77;3.97;;;;;;;1.43;85.44;100847.25;10110582;28;20062;-77
2021/01/07 14:40:28;;;;;;;9.60;4.43;;;;;;;1.55;85.28;100855.19;10085906;28;20546;-77
2021/01/07 14:45:27;;;;;;;7.47;4.05;;;;;;;1.49;85.53;100850.84;10080313;28;20074;-75
2021/01/07 14:50:27;;;;;;;8.57;4.50;;;;;;;1.50;85.74;100858.63;10100961;28;20702;-71
2021/01/07 14:55:30;;;;;;;8.15;4.45;;;;;;;1.59;85.08;100856.31;10100042;28;20487;-71
2021/01/07 15:01:03;;;;;;;7.07;4.13;;;;;;;1.62;85.39;100855.78;10105752;28;20420;-75
2021/01/07 15:06:25;;;;;;;8.20;5.07;;;;;;;1.76;85.08;100862.41;10100675;28;21318;-76
2021/01/07 15:12:09;;;;;;;7.32;4.10;;;;;;;1.57;85.44;100853.84;10104136;28;20050;-74
2021/01/07 15:17:28;;;;;;;7.57;4.60;;;;;;;1.75;84.69;100860.78;10095905;28;20058;-74
2021/01/07 15:22:42;;;;;;;8.27;4.07;;;;;;;1.82;84.42;100850.59;10109375;28;20133;-74
2021/01/07 15:27:55;;;;;;;8.02;4.63;;;;;;;1.77;84.64;100853.25;10102342;28;20082;-75
2021/01/07 15:33:09;;;;;;;7.80;4.43;;;;;;;1.68;84.71;100860.19;10109524;28;20054;-75
2021/01/07 15:38:15;;;;;;;6.68;4.07;;;;;;;1.73;84.59;100860.22;10112873;28;20054;-75
2021/01/07 15:43:13;;;;;;;7.93;4.80;;;;;;;1.81;84.26;100865.16;10095241;28;20055;-74
2021/01/07 15:49:05;;;;;;;7.28;4.40;;;;;;;1.72;84.39;100861.31;10104686;28;20129;-75
2021/01/07 15:54:14;;;;;;;;;;;;;;;1.74;84.28;100866.41;10098734;28;20074;-76
2021/01/07 15:59:18;;;;;;;7.32;4.50;;;;;;;1.76;84.90;100872.38;10103025;28;19980;-75
2021/01/07 16:04:51;;;;;;;8.05;4.65;;;;;;;1.82;84.47;100865.97;10091209;28;20038;-75
2021/01/07 16:09:48;;;;;;;8.05;4.88;;;;;;;1.70;84.98;100859.94;10099277;28;20057;-75
2021/01/07 16:14:44;;;;;;;8.30;5.22;;;;;;;1.86;85.30;100861.69;10092037;28;20677;-73
2021/01/07 16:19:41;;;;;;;8.95;4.78;;;;;;;1.69;84.27;100867.19;10086561;28;20051;-75
2021/01/07 16:24:48;;;;;;;8.35;3.80;;;;;;;1.59;84.49;100867.09;10094733;28;20059;-75
2021/01/07 16:29:45;;;;;;;8.48;4.10;;;;;;;1.51;84.72;100870.22;10094626;28;20075;-76
2021/01/07 16:34:45;;;;;;;7.97;4.55;;;;;;;1.46;86.10;100862.91;10105515;28;20677;-75
2021/01/07 16:39:44;;;;;;;7.68;4.30;;;;;;;1.35;85.30;100863.88;10112374;28;20046;-75
2021/01/07 16:44:40;;;;;;;8.90;4.72;;;;;;;1.45;85.69;100862.09;10119583;28;20163;-75
2021/01/07 16:49:37;;;;;;;8.40;4.45;;;;;;;1.54;85.36;100869.75;10100009;28;20492;-76
2021/01/07 16:54:37;;;;;;;8.18;4.40;;;;;;;1.55;85.56;100871.34;10083306;28;20051;-75
2021/01/07 16:59:38;;;;;;;9.50;4.85;;;;;;;1.58;85.57;100870.84;10086204;28;20046;-75
2021/01/07 17:04:34;;;;;;;8.98;4.70;;;;;;;1.62;85.39;100874.66;10102183;28;20437;-76
2021/01/07 17:09:31;;;;;;;10.23;5.05;;;;;;;1.61;85.16;100873.03;10101421;28;20495;-75
2021/01/07 17:14:28;;;;;;;9.73;4.85;;;;;;;1.51;85.18;100870.22;10102781;28;20062;-77
2021/01/07 17:19:24;;;;;;;7.30;4.35;;;;;;;1.68;85.35;100876.34;10106174;28;20101;-75
2021/01/07 17:24:21;;;;;;;10.10;5.95;;;;;;;1.74;85.10;100875.34;10094857;28;20089;-74
2021/01/07 17:29:21;;;;;;;10.02;5.40;;;;;;;1.76;84.63;100873.19;10087611;28;20056;-74
2021/01/07 17:34:17;;;;;;;9.40;5.47;;;;;;;1.80;84.85;100868.09;10099445;28;20471;-78
2021/01/07 17:39:14;;;;;;;11.55;5.78;;;;;;;1.61;85.53;100870.34;10094493;28;20039;-74
2021/01/07 17:44:11;;;;;;;13.13;5.80;;;;;;;1.37;86.62;100875.19;10115355;28;20145;-75
2021/01/07 17:49:08;;;;;;;14.00;6.75;;;;;;;1.50;86.29;100874.00;10102923;28;20069;-76
2021/01/07 17:54:06;;;;;;;10.82;6.07;;;;;;;1.59;86.18;100877.88;10107098;28;20124;-76
2021/01/07 17:59:03;;;;;;;12.43;6.85;;;;;;;1.63;86.17;100890.59;10111590;28;20042;-75
2021/01/07 18:04:03;;;;;;;11.45;6.07;;;;;;;1.61;86.28;100886.53;10103864;28;20174;-75
2021/01/07 18:09:03;;;;;;;11.55;6.88;;;;;;;1.70;86.02;100884.19;10106995;28;20119;-76
2021/01/07 18:14:17;;;;;;;10.27;5.78;;;;;;;1.47;86.57;100886.91;10089902;28;20047;-77
2021/01/07 18:19:13;;;;;;;11.80;6.10;;;;;;;1.39;87.19;100883.84;10097834;28;20081;-76
2021/01/07 18:24:10;;;;;;;11.15;6.07;;;;;;;1.36;87.24;100877.09;10103176;28;20042;-76
2021/01/07 18:29:07;;;;;;;14.15;6.18;;;;;;;1.27;87.19;100886.69;10088372;28;20046;-76
2021/01/07 18:34:04;;;;;;;11.48;5.40;;;;;;;1.35;86.91;100886.25;10103885;28;20065;-76
2021/01/07 18:39:00;;;;;;;10.52;5.55;;;;;;;1.29;87.20;100889.94;10095573;28;20049;-76
2021/01/07 18:43:58;;;;;;;10.80;5.68;;;;;;;1.22;87.02;100889.31;10103454;28;20594;-75
2021/01/07 18:48:55;;;;;;;11.68;6.30;;;;;;;1.24;86.77;100887.19;10108581;28;20134;-76
2021/01/07 18:53:53;;;;;;;10.18;5.63;;;;;;;1.40;86.98;100883.59;10108540;28;20105;-76
2021/01/07 18:58:50;;;;;;;10.18;4.50;;;;;;;1.55;86.42;100887.53;10113863;28;20518;-78
2021/01/07 19:03:49;;;;;;;12.20;6.68;;;;;;;1.24;86.70;100892.56;10094085;28;20148;-76
2021/01/07 19:08:47;;;;;;;11.00;6.63;;;;;;;1.55;86.42;100887.53;10105125;28;20047;-74
2021/01/07 19:13:43;;;;;;;8.63;5.10;;;;;;;1.58;85.80;100892.41;10104727;28;20078;-74
2021/01/07 19:18:40;;;;;;;11.05;6.07;;;;;;;1.69;86.02;100891.44;10117081;28;20047;-74
2021/01/07 19:23:37;;;;;;;9.63;5.55;;;;;;;1.70;86.69;100900.38;10091433;28;20051;-75
2021/01/07 19:28:34;;;;;;;11.07;5.70;;;;;;;1.83;85.62;100895.38;10078120;28;20171;-75
2021/01/07 19:33:30;;;;;;;11.43;5.65;;;;;;;1.65;85.58;100893.03;10102046;28;20055;-74
2021/01/07 19:38:27;;;;;;;13.18;6.75;;;;;;;1.56;86.14;100889.16;10100807;28;20234;-74
2021/01/07 19:43:23;;;;;;;11.73;6.30;;;;;;;1.46;86.38;100885.28;10089124;28;20065;-75
2021/01/07 19:48:20;;;;;;;14.80;6.47;;;;;;;1.60;86.03;100895.66;10098666;28;20050;-73
2021/01/07 19:53:18;;;;;;;11.60;6.05;;;;;;;1.56;86.03;100889.16;10101782;28;20176;-76
2021/01/07 19:58:14;;;;;;;11.95;6.97;;;;;;;1.59;85.85;100894.03;10104479;28;20061;-75
2021/01/07 20:03:11;;;;;;;10.50;6.60;;;;;;;1.42;86.44;100894.13;10109145;28;20077;-76
2021/01/07 20:08:08;;;;;;;12.32;7.65;;;;;;;1.70;85.76;100895.78;10112674;28;20494;-75
2021/01/07 20:13:04;;;;;;;13.02;6.85;;;;;;;1.61;85.62;100891.91;10104658;28;20050;-75
2021/01/07 20:18:01;;;;;;;11.85;7.18;;;;;;;1.63;85.66;100887.09;10094420;28;20043;-76
2021/01/07 20:22:57;;;;;;;13.77;7.60;;;;;;;1.61;85.79;100891.91;10110409;28;20125;-76
2021/01/07 20:27:55;;;;;;;14.13;6.93;;;;;;;1.61;85.72;100891.91;10089377;28;20061;-74
2021/01/07 20:32:53;;;;;;;18.60;7.50;;;;;;;1.44;86.03;100892.00;10097732;28;20053;-75
2021/01/07 20:37:52;;;;;;;12.20;6.85;;;;;;;1.66;85.58;100891.97;10092522;28;20463;-74
2021/01/07 20:42:56;;;;;;;11.02;6.53;;;;;;;1.65;85.45;100893.84;10094090;28;20070;-75
2021/01/07 20:47:55;;;;;;;10.95;6.30;;;;;;;1.64;85.41;100896.78;10110672;28;20046;-75
2021/01/07 20:52:52;;;;;;;10.10;5.57;;;;;;;1.40;85.67;100888.19;10103240;28;20101;-75
2021/01/07 20:57:55;;;;;;;9.93;5.68;;;;;;;1.54;85.69;100902.09;10113452;28;20058;-75
2021/01/07 21:03:10;;;;;;;;;;;;;;;1.56;86.05;100900.75;10108322;28;20142;-74
2021/01/07 21:08:07;;;;;;;10.35;5.97;;;;;;;1.63;85.62;100895.97;10102993;28;19952;-74
2021/01/07 21:13:05;;;;;;;10.52;6.25;;;;;;;1.68;85.61;100903.31;10119188;28;20183;-74
2021/01/07 21:18:04;;;;;;;11.13;6.20;;;;;;;1.49;86.15;100899.34;10080774;28;20049;-72
2021/01/07 21:23:01;;;;;;;11.05;6.43;;;;;;;1.56;85.79;100902.66;10091291;28;20396;-76
2021/01/07 21:28:00;;;;;;;12.80;7.10;;;;;;;1.72;85.65;100903.59;10112607;28;20049;-75
2021/01/07 21:32:57;;;;;;;12.10;6.72;;;;;;;1.68;85.38;100906.00;10098419;28;20077;-74
2021/01/07 21:37:54;;;;;;;13.23;7.38;;;;;;;1.74;84.91;100901.47;10098277;28;20058;-74
2021/01/07 21:42:56;;;;;;;12.48;6.90;;;;;;;1.67;85.05;100898.97;10099108;28;20051;-74
2021/01/07 21:47:55;;;;;;;10.38;5.95;;;;;;;1.60;85.44;100903.75;10105819;28;20097;-74
2021/01/07 21:52:53;;;;;;;10.35;6.00;;;;;;;1.60;85.17;100901.88;10108455;28;20157;-75
2021/01/07 21:57:49;;;;;;;10.00;5.82;;;;;;;1.67;85.45;100902.50;10096221;28;20125;-74
2021/01/07 22:02:47;;;;;;;9.43;5.82;;;;;;;1.73;85.51;100899.84;10112241;28;20113;-74
2021/01/07 22:07:44;;;;;;;10.50;5.57;;;;;;;1.69;85.32;100904.91;10121177;28;20057;-75
2021/01/07 22:12:42;;;;;;;11.68;6.47;;;;;;;1.74;85.27;100910.38;10100000;28;20055;-74
2021/01/07 22:17:41;;;;;;;9.98;5.78;;;;;;;1.78;84.70;100908.78;10092163;28;20054;-74
2021/01/07 22:22:44;;;;;;;9.23;5.32;;;;;;;1.73;84.70;100905.25;10104699;28;20082;-75
2021/01/07 22:27:41;;;;;;;8.38;5.65;;;;;;;1.73;84.81;100900.66;10122055;28;20070;-74
2021/01/07 22:32:37;;;;;;;9.88;5.75;;;;;;;1.80;84.95;100903.97;10099329;28;20105;-74
2021/01/07 22:37:34;;;;;;;9.07;6.07;;;;;;;1.69;84.79;100896.84;10093944;28;20081;-73
2021/01/07 22:42:31;;;;;;;9.68;6.00;;;;;;;1.73;84.77;100889.88;10109133;28;20051;-74
2021/01/07 22:47:27;;;;;;;10.18;6.13;;;;;;;1.66;84.32;100894.66;10110363;28;20054;-74
2021/01/07 22:52:24;;;;;;;10.55;6.43;;;;;;;1.67;84.97;100896.25;10098106;28;20066;-74
2021/01/07 22:57:21;;;;;;;9.40;5.57;;;;;;;1.59;84.74;100899.44;10112182;28;20054;-74
2021/01/07 23:02:17;;;;;;;9.32;5.75;;;;;;;1.51;85.06;100889.94;10113998;28;20049;-74
2021/01/07 23:07:15;;;;;;;10.65;6.55;;;;;;;1.55;85.81;100898.31;10090532;28;20499;-74